»·PEaware :: N91E KSLC-UT26

N91E :: KSLC-UT26

FLIGHT INFORMATION

Flight Status: Arrived
Operator: Privately registered:
United States
More flights under this callsign
Pilot: Dominic B. (18944)
Aircraft: MCDONNELL-DOUGLAS SKYTRAIN C-47
(DC3)
More flights by this aircraft type
Origin: KSLC Salt Lake City Intl
United States
Destination: UT26 Bryce Woodland Estates Landing(àã
United States
More flights between these airports :: More routes between these airports
Route: +
File this flight plan on PilotEdge
Remarks:
Altitude:
(Current/Filed)
10,500ft
Speed:
(Current/Filed)
0kts
Departed: 31-Aug-20 06:17 PM
Arrived: 31-Aug-20 07:17 PM
Distance/Time
Traveled:
193nm/1:00
Distance/Time
To Go:
Arrived

Flight Plot

Page will automatically refresh every two minutes.

Flight plan parsing failed; only flown route is shown


Map Options




Map Legend


Flown Route
Filed Route
Departure Airport
Arrival Airport
Navaid (VOR, NDB)
Fix

Horizontal Profiles

Position Reports

Time Latitude Longitude Heading Altitude Ground
Speed
31-Aug-20 18:15 40.036747 -111.968124 192 10501ft 181kts
31-Aug-20 18:16 39.986590 -111.977097 192 10501ft 181kts
31-Aug-20 18:17 39.941067 -111.985129 193 10600ft 185kts
31-Aug-20 18:18 39.889651 -111.994412 192 10529ft 183kts
31-Aug-20 18:19 39.839465 -112.003398 192 10528ft 181kts
31-Aug-20 18:20 39.789643 -112.012337 193 10529ft 180kts
31-Aug-20 18:21 39.740238 -112.021105 192 10529ft 180kts
31-Aug-20 18:22 39.690617 -112.030308 193 10528ft 179kts
31-Aug-20 18:23 39.641111 -112.039270 193 10522ft 179kts
31-Aug-20 18:24 39.591793 -112.048066 193 10512ft 179kts
31-Aug-20 18:25 39.542251 -112.056202 193 10501ft 179kts
31-Aug-20 18:26 39.492757 -112.064869 193 10494ft 179kts
31-Aug-20 18:27 39.443532 -112.073492 193 10493ft 178kts
31-Aug-20 18:28 39.394718 -112.082105 194 10491ft 177kts
31-Aug-20 18:29 39.345923 -112.090677 193 10491ft 177kts
31-Aug-20 18:30 39.297296 -112.099230 194 10490ft 176kts
31-Aug-20 18:31 39.248935 -112.107575 193 10490ft 175kts
31-Aug-20 18:32 39.200786 -112.115999 194 10491ft 174kts
31-Aug-20 18:33 39.154860 -112.124050 193 10493ft 172kts
31-Aug-20 18:34 39.108753 -112.132134 196 10807ft 156kts
31-Aug-20 18:35 39.067671 -112.139580 198 11388ft 145kts
31-Aug-20 18:36 39.027867 -112.146499 196 11879ft 144kts
31-Aug-20 18:37 38.988345 -112.153063 198 12346ft 142kts
31-Aug-20 18:38 38.947317 -112.160247 197 12478ft 160kts
31-Aug-20 18:39 38.902680 -112.167980 197 12477ft 163kts
31-Aug-20 18:40 38.857388 -112.175749 197 12482ft 163kts
31-Aug-20 18:41 38.812649 -112.183530 197 12533ft 163kts
31-Aug-20 18:42 38.767704 -112.191358 197 12533ft 163kts
31-Aug-20 18:43 38.722513 -112.199194 197 12532ft 164kts
31-Aug-20 18:44 38.677327 -112.206876 197 12532ft 164kts
31-Aug-20 18:45 38.632215 -112.214661 197 12532ft 163kts
31-Aug-20 18:46 38.587177 -112.222483 198 12532ft 163kts
31-Aug-20 18:47 38.542110 -112.230215 197 12532ft 163kts
31-Aug-20 18:48 38.496984 -112.237916 198 12532ft 163kts
31-Aug-20 18:49 38.452099 -112.245650 198 12532ft 163kts
31-Aug-20 18:50 38.407156 -112.253410 198 12532ft 163kts
31-Aug-20 18:51 38.362402 -112.261102 197 12551ft 162kts
31-Aug-20 18:52 38.317716 -112.268607 198 12580ft 161kts
31-Aug-20 18:53 38.273280 -112.276200 198 12608ft 161kts
31-Aug-20 18:54 38.228832 -112.283771 198 12632ft 161kts
31-Aug-20 18:55 38.184254 -112.291323 198 12633ft 161kts
31-Aug-20 18:56 38.139451 -112.298981 198 12633ft 162kts
31-Aug-20 18:57 38.094991 -112.306587 198 12632ft 162kts
31-Aug-20 18:58 38.050333 -112.314177 198 12633ft 162kts
31-Aug-20 18:59 38.005645 -112.321736 198 12633ft 162kts
31-Aug-20 19:00 37.960804 -112.329346 198 12632ft 162kts
31-Aug-20 19:01 37.916174 -112.336893 198 12632ft 162kts
31-Aug-20 19:02 37.871446 -112.344246 198 12649ft 161kts
31-Aug-20 19:03 37.826915 -112.351734 198 12667ft 161kts
31-Aug-20 19:04 37.782505 -112.359223 198 12684ft 161kts
31-Aug-20 19:05 37.737793 -112.366772 197 12473ft 164kts
31-Aug-20 19:06 37.692671 -112.374276 197 11636ft 164kts
31-Aug-20 19:07 37.651230 -112.381193 196 10869ft 160kts
31-Aug-20 19:08 37.607506 -112.388539 195 10052ft 159kts
31-Aug-20 19:09 37.578228 -112.420149 260 9072ft 147kts
31-Aug-20 19:10 37.601901 -112.443907 29 8453ft 149kts
31-Aug-20 19:11 37.603320 -112.404894 155 8023ft 114kts
31-Aug-20 19:12 37.578758 -112.409300 262 7867ft 97kts
31-Aug-20 19:13 37.591938 -112.406555 133 7888ft 95kts
31-Aug-20 19:14 37.578693 -112.428458 251 7961ft 118kts
31-Aug-20 19:15 37.571260 -112.412512 35 7714ft 103kts
31-Aug-20 19:16 37.590694 -112.412909 347 7422ft 6kts
31-Aug-20 19:17 37.590720 -112.412917 347 7422ft 0kts
31-Aug-20 19:18 37.590720 -112.412917 347 7422ft 0kts

Navigation Log

Ident Type
Flight plan parsing failed, navigation log unavailable